Time;durP1;ratioP1;P1;durP2;ratioP2;P2;SDS_P1;SDS_P2;PMS_P1;PMS_P2;Temp;Humidity;BMP_temperature;BMP_pressure;BME280_temperature;BME280_humidity;BME280_pressure;Samples;Min_cycle;Max_cycle;Signal;HPM_P1;HPM_P2
2023/08/16 00:00:41;;;;;;;;;;;;;;;-140.72;100.00;52654.66;6277284;22;19942;-68
2023/08/16 00:03:06;;;;;;;;;;;;;;;-140.72;100.00;52666.84;6277411;22;20350;-68
2023/08/16 00:05:32;;;;;;;;;;;;;;;-140.72;100.00;52630.31;6276992;22;19989;-68
2023/08/16 00:07:57;;;;;;;;;;;;;;;-140.72;100.00;52658.72;6276696;22;19938;-68
2023/08/16 00:10:23;;;;;;;;;;;;;;;-140.72;100.00;52650.59;6277291;22;19911;-69
2023/08/16 00:12:48;;;;;;;;;;;;;;;-140.72;100.00;52646.53;6277774;22;19911;-68
2023/08/16 00:15:13;;;;;;;;;;;;;;;-140.72;100.00;52618.13;6276898;22;19917;-68
2023/08/16 00:17:38;;;;;;;;;;;;;;;-140.72;100.00;52679.00;6276834;22;19947;-68
2023/08/16 00:20:04;;;;;;;;;;;;;;;-140.72;100.00;52664.81;6276975;22;19915;-68
2023/08/16 00:22:30;;;;;;;;;;;;;;;-140.72;100.00;52672.91;6277368;22;19912;-68
2023/08/16 00:24:55;;;;;;;;;;;;;;;-140.72;100.00;52636.38;6278153;22;19911;-69
2023/08/16 00:27:20;;;;;;;;;;;;;;;-140.72;100.00;52652.63;6275267;22;20005;-68
2023/08/16 00:29:48;;;;;;;;;;;;;;;-140.72;100.00;52666.84;6276900;22;19919;-68
2023/08/16 00:32:13;;;;;;;;;;;;;;;-140.72;100.00;52658.72;6276317;22;19911;-68
2023/08/16 00:34:39;;;;;;;;;;;;;;;-140.72;100.00;52676.97;6276392;22;19915;-68
2023/08/16 00:37:04;;;;;;;;;;;;;;;-140.72;100.00;52660.75;6275110;22;20347;-68
2023/08/16 00:39:29;;;;;;;;;;;;;;;-140.72;100.00;52658.72;6276872;22;20290;-68
2023/08/16 00:41:54;;;;;;;;;;;;;;;-140.72;100.00;52689.16;6276254;22;20288;-68
2023/08/16 00:44:20;;;;;;;;;;;;;;;-140.72;100.00;52679.00;6275697;22;19965;-68
2023/08/16 00:46:45;;;;;;;;;;;;;;;-140.72;100.00;52689.16;6276058;22;19915;-68
2023/08/16 00:49:10;;;;;;;;;;;;;;;-140.72;100.00;52662.78;6274004;22;19925;-68
2023/08/16 00:51:37;;;;;;;;;;;;;;;-140.72;100.00;52648.56;6276473;22;20018;-68
2023/08/16 00:54:03;;;;;;;;;;;;;;;-140.72;100.00;52630.31;6276099;22;19985;-68
2023/08/16 00:56:28;;;;;;;;;;;;;;;-140.72;100.00;52668.84;6275397;22;19995;-68
2023/08/16 00:58:53;;;;;;;;;;;;;;;-140.72;100.00;52662.78;6274512;22;20017;-68
2023/08/16 01:01:19;;;;;;;;;;;;;;;-140.72;100.00;52640.44;6275193;22;19911;-68
2023/08/16 01:03:46;;;;;;;;;;;;;;;-140.72;100.00;52681.03;6275473;22;19911;-68
2023/08/16 01:06:11;;;;;;;;;;;;;;;-140.72;100.00;52681.03;6276053;22;19911;-68
2023/08/16 01:08:36;;;;;;;;;;;;;;;-140.72;100.00;52670.88;6276741;22;20347;-68
2023/08/16 01:11:04;;;;;;;;;;;;;;;-140.72;100.00;52662.78;6276582;22;19917;-68
2023/08/16 01:13:37;;;;;;;;;;;;;;;-140.72;100.00;52642.47;6276372;22;19915;-68
2023/08/16 01:16:07;;;;;;;;;;;;;;;-140.72;100.00;52654.66;6276412;22;20221;-68
2023/08/16 01:18:34;;;;;;;;;;;;;;;-140.72;100.00;52697.28;6276671;22;20189;-68
2023/08/16 01:20:59;;;;;;;;;;;;;;;-140.72;100.00;52654.66;6276313;22;19911;-69
2023/08/16 01:23:34;;;;;;;;;;;;;;;-140.72;100.00;52670.88;6276270;22;19919;-69
2023/08/16 01:26:08;;;;;;;;;;;;;;;-140.72;100.00;52679.00;6276672;22;19969;-68
2023/08/16 01:28:35;;;;;;;;;;;;;;;-140.72;100.00;52703.34;6299872;22;19969;-68
2023/08/16 01:31:03;;;;;;;;;;;;;;;-140.72;100.00;52646.53;6275533;22;19915;-68
2023/08/16 01:33:29;;;;;;;;;;;;;;;-140.72;100.00;52656.69;6275749;22;20010;-68
2023/08/16 01:35:54;;;;;;;;;;;;;;;-140.72;100.00;52658.72;6275819;22;19912;-68
2023/08/16 01:38:20;;;;;;;;;;;;;;;-140.72;100.00;52691.19;6276230;22;19939;-68
2023/08/16 01:41:04;;;;;;;;;;;;;;;-140.72;100.00;52662.78;6276095;22;19911;-68
2023/08/16 01:43:30;;;;;;;;;;;;;;;-140.72;100.00;52687.13;6277259;22;19939;-68
2023/08/16 01:45:56;;;;;;;;;;;;;;;-140.72;100.00;52650.59;6277344;22;19918;-69
2023/08/16 01:48:23;;;;;;;;;;;;;;;-140.72;100.00;52666.84;6275855;22;19934;-68
2023/08/16 01:50:48;;;;;;;;;;;;;;;-140.72;100.00;52674.94;6275269;22;19912;-68
2023/08/16 01:53:13;;;;;;;;;;;;;;;-140.72;100.00;52695.25;6277474;22;19918;-68
2023/08/16 01:55:39;;;;;;;;;;;;;;;-140.72;100.00;52656.69;6276770;22;19911;-69
2023/08/16 01:58:04;;;;;;;;;;;;;;;-140.72;100.00;52687.13;6274438;22;19994;-69
2023/08/16 02:00:29;;;;;;;;;;;;;;;-140.72;100.00;52670.88;6275394;22;19918;-69
2023/08/16 02:02:54;;;;;;;;;;;;;;;-140.72;100.00;52689.16;6275106;22;19911;-69
2023/08/16 02:05:20;;;;;;;;;;;;;;;-140.72;100.00;52689.16;6275220;22;19911;-69
2023/08/16 02:07:45;;;;;;;;;;;;;;;-140.72;100.00;52670.88;6275694;22;20061;-69
2023/08/16 02:10:10;;;;;;;;;;;;;;;-140.72;100.00;52687.13;6276006;22;19911;-69
2023/08/16 02:12:35;;;;;;;;;;;;;;;-140.72;100.00;52683.06;6275577;22;20284;-69
2023/08/16 02:15:01;;;;;;;;;;;;;;;-140.72;100.00;52664.81;6273065;22;20263;-68
2023/08/16 02:17:26;;;;;;;;;;;;;;;-140.72;100.00;52691.19;6299682;22;20290;-68
2023/08/16 02:19:52;;;;;;;;;;;;;;;-140.72;100.00;52683.06;6275714;22;19915;-68
2023/08/16 02:22:18;;;;;;;;;;;;;;;-140.72;100.00;52672.91;6273881;22;20010;-68
2023/08/16 02:24:43;;;;;;;;;;;;;;;-140.72;100.00;52660.75;6299750;22;19915;-67
2023/08/16 02:27:08;;;;;;;;;;;;;;;-140.72;100.00;52713.50;6275230;22;20311;-67
2023/08/16 02:29:33;;;;;;;;;;;;;;;-140.72;100.00;52699.31;6275844;22;19950;-67
2023/08/16 02:31:58;;;;;;;;;;;;;;;-140.72;100.00;52668.84;6275251;22;19912;-68
2023/08/16 02:34:24;;;;;;;;;;;;;;;-140.72;100.00;52691.19;6273383;22;20365;-67
2023/08/16 02:36:49;;;;;;;;;;;;;;;-140.72;100.00;52693.22;6273831;22;19918;-68
2023/08/16 02:39:14;;;;;;;;;;;;;;;-140.72;100.00;52715.53;6275346;22;19912;-68
2023/08/16 02:41:39;;;;;;;;;;;;;;;-140.72;100.00;52725.69;6275308;22;19915;-68
2023/08/16 02:44:05;;;;;;;;;;;;;;;-140.72;100.00;52697.28;6278820;22;20343;-68
2023/08/16 02:46:30;;;;;;;;;;;;;;;-140.72;100.00;52693.22;6277229;22;19915;-68
2023/08/16 02:48:55;;;;;;;;;;;;;;;-140.72;100.00;52705.38;6275822;22;19968;-68
2023/08/16 02:51:20;;;;;;;;;;;;;;;-140.72;100.00;52707.41;6277884;22;19918;-68
2023/08/16 02:53:46;;;;;;;;;;;;;;;-140.72;100.00;52695.25;6276209;22;19915;-68
2023/08/16 02:56:11;;;;;;;;;;;;;;;-140.72;100.00;52687.13;6277897;22;19915;-68
2023/08/16 02:58:36;;;;;;;;;;;;;;;-140.72;100.00;52691.19;6279448;22;19916;-68
2023/08/16 03:01:01;;;;;;;;;;;;;;;-140.72;100.00;52725.69;6280726;22;19918;-68
2023/08/16 03:03:26;;;;;;;;;;;;;;;-140.72;100.00;52695.25;6280436;22;19938;-68
2023/08/16 03:05:52;;;;;;;;;;;;;;;-140.72;100.00;52691.19;6281500;22;19922;-68
2023/08/16 03:08:17;;;;;;;;;;;;;;;-140.72;100.00;52725.69;6280508;22;19911;-68
2023/08/16 03:10:42;;;;;;;;;;;;;;;-140.72;100.00;52707.41;6278960;22;19965;-68
2023/08/16 03:13:08;;;;;;;;;;;;;;;-140.72;100.00;52705.38;6279200;22;19911;-68
2023/08/16 03:15:33;;;;;;;;;;;;;;;-140.72;100.00;52687.13;6277735;22;19911;-68
2023/08/16 03:17:59;;;;;;;;;;;;;;;-140.72;100.00;52707.41;6277672;22;20317;-68
2023/08/16 03:20:24;;;;;;;;;;;;;;;-140.72;100.00;52676.97;6277596;22;19912;-68
2023/08/16 03:22:49;;;;;;;;;;;;;;;-140.72;100.00;52719.59;6276115;22;19911;-68
2023/08/16 03:25:14;;;;;;;;;;;;;;;-140.72;100.00;52672.91;6277755;22;19938;-68
2023/08/16 03:27:39;;;;;;;;;;;;;;;-140.72;100.00;52679.00;6301252;22;20319;-68
2023/08/16 03:30:05;;;;;;;;;;;;;;;-140.72;100.00;52691.19;6275780;22;20288;-68
2023/08/16 03:32:30;;;;;;;;;;;;;;;-140.72;100.00;52703.34;6274695;22;20822;-68
2023/08/16 03:34:55;;;;;;;;;;;;;;;-140.72;100.00;52697.28;6277307;22;20300;-68
2023/08/16 03:37:21;;;;;;;;;;;;;;;-140.72;100.00;52691.19;6276819;22;20049;-68
2023/08/16 03:39:47;;;;;;;;;;;;;;;-140.72;100.00;52717.56;6276580;22;19919;-68
2023/08/16 03:42:12;;;;;;;;;;;;;;;-140.72;100.00;52695.25;6278120;22;20316;-68
2023/08/16 03:44:38;;;;;;;;;;;;;;;-140.72;100.00;52660.75;6278195;22;19945;-68
2023/08/16 03:47:04;;;;;;;;;;;;;;;-140.72;100.00;52670.88;6277891;22;19922;-68
2023/08/16 03:49:29;;;;;;;;;;;;;;;-140.72;100.00;52674.94;6278384;22;20225;-67
2023/08/16 03:51:54;;;;;;;;;;;;;;;-140.72;100.00;52733.78;6276818;22;19949;-67
2023/08/16 03:54:19;;;;;;;;;;;;;;;-140.72;100.00;52727.72;6277784;22;19922;-68
2023/08/16 03:56:45;;;;;;;;;;;;;;;-140.72;100.00;52711.47;6276713;22;19922;-68
2023/08/16 03:59:10;;;;;;;;;;;;;;;-140.72;100.00;52711.47;6274568;22;19997;-68
2023/08/16 04:01:36;;;;;;;;;;;;;;;-140.72;100.00;52689.16;6276506;22;19922;-68
2023/08/16 04:04:01;;;;;;;;;;;;;;;-140.72;100.00;52705.38;6276171;22;19994;-68
2023/08/16 04:06:26;;;;;;;;;;;;;;;-140.72;100.00;52762.22;6275032;22;20209;-68
2023/08/16 04:08:51;;;;;;;;;;;;;;;-140.72;100.00;52691.19;6275727;22;19915;-68
2023/08/16 04:11:17;;;;;;;;;;;;;;;-140.72;100.00;52676.97;6276995;22;19918;-67
2023/08/16 04:13:42;;;;;;;;;;;;;;;-140.72;100.00;52676.97;6277069;22;20013;-68
2023/08/16 04:16:07;;;;;;;;;;;;;;;-140.72;100.00;52711.47;6275099;22;19916;-68
2023/08/16 04:18:32;;;;;;;;;;;;;;;-140.72;100.00;52758.16;6277102;22;20403;-68
2023/08/16 04:20:57;;;;;;;;;;;;;;;-140.72;100.00;52727.72;6275943;22;19939;-67
2023/08/16 04:23:23;;;;;;;;;;;;;;;-140.72;100.00;52739.88;6277252;22;19990;-68
2023/08/16 04:25:49;;;;;;;;;;;;;;;-140.72;100.00;52729.75;6277153;22;19922;-69
2023/08/16 04:28:14;;;;;;;;;;;;;;;-140.72;100.00;52715.53;6277042;22;20280;-69
2023/08/16 04:30:40;;;;;;;;;;;;;;;-140.72;100.00;52715.53;6300603;22;19992;-69
2023/08/16 04:33:05;;;;;;;;;;;;;;;-140.72;100.00;52703.34;6276338;22;19949;-69
2023/08/16 04:35:30;;;;;;;;;;;;;;;-140.72;100.00;52683.06;6274484;22;19912;-69
2023/08/16 04:37:55;;;;;;;;;;;;;;;-140.72;100.00;52719.59;6274882;22;19922;-68
2023/08/16 04:40:20;;;;;;;;;;;;;;;-140.72;100.00;52733.78;6276252;22;19915;-69
2023/08/16 04:42:46;;;;;;;;;;;;;;;-140.72;100.00;52711.47;6278022;22;19945;-69
2023/08/16 04:45:11;;;;;;;;;;;;;;;-140.72;100.00;52711.47;6275005;22;20343;-69
2023/08/16 04:47:36;;;;;;;;;;;;;;;-140.72;100.00;52711.47;6276758;22;19911;-69
2023/08/16 04:50:06;;;;;;;;;;;;;;;-140.72;100.00;52745.97;6275233;22;19915;-69
2023/08/16 04:52:32;;;;;;;;;;;;;;;-140.72;100.00;52739.88;6276161;22;19990;-69
2023/08/16 04:54:58;;;;;;;;;;;;;;;-140.72;100.00;52679.00;6274771;22;19958;-69
2023/08/16 04:57:24;;;;;;;;;;;;;;;-140.72;100.00;52707.41;6275502;22;19919;-69
2023/08/16 04:59:49;;;;;;;;;;;;;;;-140.72;100.00;52691.19;6274925;22;19956;-69
2023/08/16 05:02:14;;;;;;;;;;;;;;;-140.72;100.00;52695.25;6274933;22;19915;-69
2023/08/16 05:04:39;;;;;;;;;;;;;;;-140.72;100.00;52719.59;6275886;22;20279;-69
2023/08/16 05:07:05;;;;;;;;;;;;;;;-140.72;100.00;52717.56;6275833;22;19912;-68
2023/08/16 05:09:30;;;;;;;;;;;;;;;-140.72;100.00;52699.31;6275480;22;19934;-68
2023/08/16 05:11:55;;;;;;;;;;;;;;;-140.72;100.00;52705.38;6274364;22;20342;-67
2023/08/16 05:14:20;;;;;;;;;;;;;;;-140.72;100.00;52668.84;6275969;22;19915;-69
2023/08/16 05:16:46;;;;;;;;;;;;;;;-140.72;100.00;52754.09;6276065;22;19964;-69
2023/08/16 05:19:11;;;;;;;;;;;;;;;-140.72;100.00;52721.63;6276620;22;19982;-68
2023/08/16 05:21:36;;;;;;;;;;;;;;;-140.72;100.00;52707.41;6275893;22;19922;-67
2023/08/16 05:24:01;;;;;;;;;;;;;;;-140.72;100.00;52687.13;6273219;22;20328;-67
2023/08/16 05:26:27;;;;;;;;;;;;;;;-140.72;100.00;52717.56;6274671;22;20320;-68
2023/08/16 05:28:52;;;;;;;;;;;;;;;-140.72;100.00;52679.00;6299899;22;19917;-68
2023/08/16 05:31:17;;;;;;;;;;;;;;;-140.72;100.00;52681.03;6275267;22;19948;-67
2023/08/16 05:33:42;;;;;;;;;;;;;;;-140.72;100.00;52711.47;6276322;22;19918;-68
2023/08/16 05:36:08;;;;;;;;;;;;;;;-140.72;100.00;52703.34;6276241;22;19994;-70
2023/08/16 05:38:33;;;;;;;;;;;;;;;-140.72;100.00;52748.00;6276519;22;19946;-69
2023/08/16 05:40:58;;;;;;;;;;;;;;;-140.72;100.00;52674.94;6277015;22;19931;-69
2023/08/16 05:43:24;;;;;;;;;;;;;;;-140.72;100.00;52691.19;6281087;22;19964;-72
2023/08/16 05:45:50;;;;;;;;;;;;;;;-140.72;100.00;52699.31;6303707;22;19918;-71
2023/08/16 05:48:15;;;;;;;;;;;;;;;-140.72;100.00;52670.88;6279158;22;19926;-71
2023/08/16 05:50:41;;;;;;;;;;;;;;;-140.72;100.00;52715.53;6277814;22;19915;-72
2023/08/16 05:53:06;;;;;;;;;;;;;;;-140.72;100.00;52693.22;6276083;22;19915;-72
2023/08/16 05:55:32;;;;;;;;;;;;;;;-140.72;100.00;52703.34;6276150;22;20338;-70
2023/08/16 05:58:04;;;;;;;;;;;;;;;-140.72;100.00;52628.28;6279739;22;19915;-71
2023/08/16 06:00:29;;;;;;;;;;;;;;;-140.72;100.00;52723.66;6285464;22;20244;-70
2023/08/16 06:02:54;;;;;;;;;;;;;;;-140.72;100.00;52666.84;6277112;22;19960;-69
2023/08/16 06:05:20;;;;;;;;;;;;;;;-140.72;100.00;52691.19;6275706;22;20320;-71
2023/08/16 06:07:45;;;;;;;;;;;;;;;-140.72;100.00;52699.31;6276329;22;20366;-71
2023/08/16 06:10:11;;;;;;;;;;;;;;;-140.72;100.00;52699.31;6276679;22;19947;-71
2023/08/16 06:12:36;;;;;;;;;;;;;;;-140.72;100.00;52670.88;6276941;22;19943;-71
2023/08/16 06:15:02;;;;;;;;;;;;;;;-140.72;100.00;52672.91;6276737;22;20255;-71
2023/08/16 06:17:27;;;;;;;;;;;;;;;-140.72;100.00;52683.06;6277370;22;19947;-71
2023/08/16 06:19:52;;;;;;;;;;;;;;;-140.72;100.00;52658.72;6279079;22;19947;-71
2023/08/16 06:22:18;;;;;;;;;;;;;;;-140.72;100.00;52689.16;6278783;22;20339;-71
2023/08/16 06:24:43;;;;;;;;;;;;;;;-140.72;100.00;52650.59;6278363;22;19957;-71
2023/08/16 06:27:08;;;;;;;;;;;;;;;-140.72;100.00;52674.94;6277404;22;19961;-71
2023/08/16 06:29:34;;;;;;;;;;;;;;;-140.72;100.00;52670.88;6278538;22;19925;-71
2023/08/16 06:32:00;;;;;;;;;;;;;;;-140.72;100.00;52674.94;6277610;22;19950;-68
2023/08/16 06:34:26;;;;;;;;;;;;;;;-140.72;100.00;52674.94;6277096;22;19918;-71
2023/08/16 06:36:52;;;;;;;;;;;;;;;-140.72;100.00;52699.31;6278256;22;20362;-71
2023/08/16 06:39:17;;;;;;;;;;;;;;;-140.72;100.00;52626.25;6277794;22;19990;-71
2023/08/16 06:41:42;;;;;;;;;;;;;;;-140.72;100.00;52624.22;6277748;22;20244;-72
2023/08/16 06:44:08;;;;;;;;;;;;;;;-140.72;100.00;52646.53;6285497;22;19911;-72
2023/08/16 06:46:34;;;;;;;;;;;;;;;-140.72;100.00;52648.56;6277285;22;19915;-72
2023/08/16 06:49:00;;;;;;;;;;;;;;;-140.72;100.00;52679.00;6276512;22;20018;-70
2023/08/16 06:51:26;;;;;;;;;;;;;;;-140.72;100.00;52660.75;6276832;22;19911;-73
2023/08/16 06:53:51;;;;;;;;;;;;;;;-140.72;100.00;52644.50;6276891;22;19922;-73
2023/08/16 06:56:16;;;;;;;;;;;;;;;-140.72;100.00;52640.44;6277305;22;20291;-72
2023/08/16 06:58:41;;;;;;;;;;;;;;;-140.72;100.00;52638.41;6277673;22;19915;-70
2023/08/16 07:01:08;;;;;;;;;;;;;;;-140.72;100.00;52642.47;6275603;22;19964;-73
2023/08/16 07:03:33;;;;;;;;;;;;;;;-140.72;100.00;52622.19;6278979;22;19912;-72
2023/08/16 07:05:58;;;;;;;;;;;;;;;-140.72;100.00;52652.63;6277488;22;19918;-74
2023/08/16 07:08:23;;;;;;;;;;;;;;;-140.72;100.00;52630.31;6277793;22;20319;-74
2023/08/16 07:10:49;;;;;;;;;;;;;;;-140.72;100.00;52595.81;6277441;22;19912;-71
2023/08/16 07:13:14;;;;;;;;;;;;;;;-140.72;100.00;52601.91;6277395;22;19911;-71
2023/08/16 07:15:40;;;;;;;;;;;;;;;-140.72;100.00;52648.56;6301627;22;20241;-71
2023/08/16 07:18:05;;;;;;;;;;;;;;;-140.72;100.00;52601.91;6277587;22;19911;-71
2023/08/16 07:20:31;;;;;;;;;;;;;;;-140.72;100.00;52605.94;6277060;22;19915;-70
2023/08/16 07:22:58;;;;;;;;;;;;;;;-140.72;100.00;52620.16;6276954;22;20301;-72
2023/08/16 07:25:25;;;;;;;;;;;;;;;-140.72;100.00;52593.78;6277910;22;19915;-71
2023/08/16 07:27:50;;;;;;;;;;;;;;;-140.72;100.00;52577.53;6278544;22;20343;-71
2023/08/16 07:30:16;;;;;;;;;;;;;;;-140.72;100.00;52610.00;6301985;22;20001;-71
2023/08/16 07:32:41;;;;;;;;;;;;;;;-140.72;100.00;52577.53;6277985;22;19918;-71
2023/08/16 07:35:07;;;;;;;;;;;;;;;-140.72;100.00;52614.06;6276473;22;19911;-71
2023/08/16 07:37:33;;;;;;;;;;;;;;;-140.72;100.00;52612.03;6276869;22;19950;-73
2023/08/16 07:39:59;;;;;;;;;;;;;;;-140.72;100.00;52587.69;6276631;22;19911;-71
2023/08/16 07:42:24;;;;;;;;;;;;;;;-140.72;100.00;52626.25;6278559;22;19918;-71
2023/08/16 07:44:49;;;;;;;;;;;;;;;-140.72;100.00;52593.78;6280473;22;19990;-71
2023/08/16 07:47:14;;;;;;;;;;;;;;;-140.72;100.00;52585.66;6277642;22;19918;-72
2023/08/16 07:49:41;;;;;;;;;;;;;;;-140.72;100.00;52577.53;6277089;22;19918;-72
2023/08/16 07:52:06;;;;;;;;;;;;;;;-140.72;100.00;52571.47;6275862;22;19949;-71
2023/08/16 07:54:32;;;;;;;;;;;;;;;-140.72;100.00;52577.53;6276802;22;19922;-73
2023/08/16 07:56:57;;;;;;;;;;;;;;;-140.72;100.00;52581.59;6276541;22;19926;-71
2023/08/16 07:59:22;;;;;;;;;;;;;;;-140.72;100.00;52561.31;6278959;22;19922;-71
2023/08/16 08:01:49;;;;;;;;;;;;;;;-140.72;100.00;52577.53;6279275;22;20292;-72
2023/08/16 08:04:15;;;;;;;;;;;;;;;-140.72;100.00;52561.31;6277856;22;19911;-71
2023/08/16 08:06:40;;;;;;;;;;;;;;;-140.72;100.00;52565.38;6277514;22;19911;-71
2023/08/16 08:09:05;;;;;;;;;;;;;;;-140.72;100.00;52553.19;6278721;22;19915;-72
2023/08/16 08:11:30;;;;;;;;;;;;;;;-140.72;100.00;52526.81;6302271;22;19911;-71
2023/08/16 08:13:57;;;;;;;;;;;;;;;-140.72;100.00;52522.75;6275866;22;19951;-72
2023/08/16 08:16:22;;;;;;;;;;;;;;;-140.72;100.00;52528.84;6277618;22;20312;-71
2023/08/16 08:18:47;;;;;;;;;;;;;;;-140.72;100.00;52516.66;6277153;22;19946;-71
2023/08/16 08:21:13;;;;;;;;;;;;;;;-140.72;100.00;52504.50;6276597;22;19917;-70
2023/08/16 08:23:38;;;;;;;;;;;;;;;-140.72;100.00;52465.94;6277284;22;19934;-71
2023/08/16 08:26:04;;;;;;;;;;;;;;;-140.72;100.00;52431.44;6275933;22;19919;-71
2023/08/16 08:28:31;;;;;;;;;;;;;;;-140.72;100.00;52463.91;6276772;22;19919;-71
2023/08/16 08:30:56;;;;;;;;;;;;;;;-140.72;79.32;52492.31;6276628;22;19915;-71
2023/08/16 08:33:21;;;;;;;;;;;;;;;-140.72;40.77;52467.97;6277972;22;19946;-71
2023/08/16 08:35:48;;;;;;;;;;;;;;;-140.72;2.47;52439.56;6278407;22;19911;-71
2023/08/16 08:38:13;;;;;;;;;;;;;;;-140.72;0.00;52413.19;6277468;22;19946;-70
2023/08/16 08:40:39;;;;;;;;;;;;;;;-140.72;0.00;52398.97;6277561;22;19955;-76
2023/08/16 08:43:05;;;;;;;;;;;;;;;-140.72;0.00;52360.44;6281359;22;19930;-71
2023/08/16 08:45:30;;;;;;;;;;;;;;;-140.72;0.00;52386.81;6276964;22;19911;-71
2023/08/16 08:47:59;;;;;;;;;;;;;;;-140.72;0.00;52386.81;6278443;22;20251;-72
2023/08/16 08:50:24;;;;;;;;;;;;;;;-140.72;0.00;52350.28;6279154;22;19918;-76
2023/08/16 08:52:54;;;;;;;;;;;;;;;-140.72;0.00;52354.34;6276305;22;19911;-71
2023/08/16 08:55:19;;;;;;;;;;;;;;;-140.72;0.00;52317.81;6278231;22;19922;-71
2023/08/16 08:57:50;;;;;;;;;;;;;;;-140.72;0.00;52342.16;6277208;22;20002;-70
2023/08/16 09:00:17;;;;;;;;;;;;;;;-140.72;0.00;52299.56;6277467;22;19931;-72
2023/08/16 09:02:43;;;;;;;;;;;;;;;-140.72;0.00;52315.78;6275569;22;19987;-70
2023/08/16 09:05:10;;;;;;;;;;;;;;;-140.72;0.00;52289.41;6278129;22;19920;-70
2023/08/16 09:07:36;;;;;;;;;;;;;;;-140.72;0.00;52285.34;6277685;22;19915;-70
2023/08/16 09:10:01;;;;;;;;;;;;;;;-140.72;0.00;52273.19;6301542;22;19915;-72
2023/08/16 09:12:26;;;;;;;;;;;;;;;-140.72;0.00;52254.91;6301493;22;19914;-70
2023/08/16 09:14:51;;;;;;;;;;;;;;;-140.72;0.00;52258.97;6302707;22;19911;-73
2023/08/16 09:17:18;;;;;;;;;;;;;;;-140.72;0.00;52269.13;6275278;22;19911;-70
2023/08/16 09:19:44;;;;;;;;;;;;;;;-140.72;0.00;52167.66;6278697;22;19912;-70
2023/08/16 09:22:09;;;;;;;;;;;;;;;-140.72;0.00;52157.53;6277672;22;19956;-78
2023/08/16 09:24:35;;;;;;;;;;;;;;;-140.72;0.00;52147.38;6279250;22;20224;-74
2023/08/16 09:27:00;;;;;;;;;;;;;;;-140.72;0.00;52133.16;6277775;22;19915;-69
2023/08/16 09:29:25;;;;;;;;;;;;;;;-140.72;0.00;52118.97;6278103;22;19915;-69
2023/08/16 09:31:50;;;;;;;;;;;;;;;-140.72;0.00;52129.13;6276888;22;19955;-70
2023/08/16 09:34:19;;;;;;;;;;;;;;;-140.72;0.00;52102.75;6277327;22;19923;-70
2023/08/16 09:36:47;;;;;;;;;;;;;;;-140.72;0.00;52106.78;6277662;22;19912;-70
2023/08/16 09:39:12;;;;;;;;;;;;;;;-140.72;0.00;52086.50;6277232;22;19911;-71
2023/08/16 09:41:50;;;;;;;;;;;;;;;-140.72;0.00;52094.63;6303041;22;19912;-75
2023/08/16 09:44:16;;;;;;;;;;;;;;;-140.72;0.00;52035.78;6278342;22;19964;-68
2023/08/16 09:46:41;;;;;;;;;;;;;;;-140.72;0.00;52045.94;6299793;22;19915;-70
2023/08/16 09:49:07;;;;;;;;;;;;;;;-140.72;0.00;52045.94;6275738;22;19938;-70
2023/08/16 09:51:34;;;;;;;;;;;;;;;-140.72;0.00;52052.00;6276919;22;19919;-70
2023/08/16 09:54:01;;;;;;;;;;;;;;;-140.72;0.00;52011.44;6277874;22;19911;-72
2023/08/16 09:56:27;;;;;;;;;;;;;;;-140.72;0.00;52021.56;6277064;22;19919;-69
2023/08/16 09:58:53;;;;;;;;;;;;;;;-140.72;0.00;52003.31;6279671;22;19915;-71
2023/08/16 10:01:18;;;;;;;;;;;;;;;-140.72;0.00;52011.44;6277881;22;19994;-70
2023/08/16 10:03:46;;;;;;;;;;;;;;;-140.72;0.00;52017.53;6276245;22;19994;-70
2023/08/16 10:06:11;;;;;;;;;;;;;;;-140.72;0.00;52023.59;6276976;22;20290;-71
2023/08/16 10:08:37;;;;;;;;;;;;;;;-140.72;0.00;52023.59;6300448;22;20002;-71
2023/08/16 10:11:02;;;;;;;;;;;;;;;-140.72;0.00;51997.22;6276585;22;19912;-71
2023/08/16 10:13:28;;;;;;;;;;;;;;;-140.72;0.00;51932.31;6277706;22;19911;-79
2023/08/16 10:15:53;;;;;;;;;;;;;;;-140.72;0.00;51966.81;6274541;22;19918;-70
2023/08/16 10:18:21;;;;;;;;;;;;;;;-140.72;0.00;51972.88;6276345;22;19923;-71
2023/08/16 10:20:46;;;;;;;;;;;;;;;-140.72;0.00;51895.78;6276591;22;20225;-70
2023/08/16 10:23:12;;;;;;;;;;;;;;;-140.72;0.00;51924.19;6274800;22;19911;-71
2023/08/16 10:25:44;;;;;;;;;;;;;;;-140.72;0.00;51920.13;6274709;22;19915;-76
2023/08/16 10:28:10;;;;;;;;;;;;;;;-140.72;0.00;51940.41;6275194;22;19938;-70
2023/08/16 10:30:35;;;;;;;;;;;;;;;-140.72;0.00;51930.28;6276711;22;19911;-72
2023/08/16 10:33:08;;;;;;;;;;;;;;;-140.72;0.00;51932.31;6274271;22;19941;-71
2023/08/16 10:35:35;;;;;;;;;;;;;;;-140.72;0.00;51920.13;6275007;22;19911;-74
2023/08/16 10:38:00;;;;;;;;;;;;;;;-140.72;0.00;51875.50;6272048;22;19911;-74
2023/08/16 10:40:25;;;;;;;;;;;;;;;-140.72;0.00;51907.97;6277523;22;20298;-73
2023/08/16 10:42:54;;;;;;;;;;;;;;;-140.72;0.00;51822.75;6276937;22;20459;-70
2023/08/16 10:45:23;;;;;;;;;;;;;;;-140.72;0.00;51830.88;6274440;22;20285;-70
2023/08/16 10:47:48;;;;;;;;;;;;;;;-140.72;0.00;51814.63;6275651;22;19911;-71
2023/08/16 10:50:13;;;;;;;;;;;;;;;-140.72;0.00;51806.53;6273217;22;19960;-73
2023/08/16 10:52:41;;;;;;;;;;;;;;;-140.72;0.00;51788.25;6275601;22;20229;-73
2023/08/16 10:55:06;;;;;;;;;;;;;;;-140.72;0.00;51824.78;6276775;22;19968;-71
2023/08/16 10:57:32;;;;;;;;;;;;;;;-140.72;0.00;51778.13;6276112;22;19915;-70
2023/08/16 11:00:08;;;;;;;;;;;;;;;-140.72;0.00;51770.00;6275220;22;20213;-71
2023/08/16 11:02:37;;;;;;;;;;;;;;;-140.72;0.00;51765.94;6275519;22;19911;-72
2023/08/16 11:05:03;;;;;;;;;;;;;;;-140.72;0.00;51743.63;6277649;22;19923;-70
2023/08/16 11:07:28;;;;;;;;;;;;;;;-140.72;0.00;51737.53;6277139;22;19918;-69
2023/08/16 11:10:00;;;;;;;;;;;;;;;-140.72;0.00;51672.63;6277040;22;19911;-70
2023/08/16 11:12:30;;;;;;;;;;;;;;;-140.72;0.00;51713.19;6275314;22;19933;-71
2023/08/16 11:14:55;;;;;;;;;;;;;;;-140.72;0.00;51761.88;6276115;22;19954;-71
2023/08/16 11:17:20;;;;;;;;;;;;;;;-140.72;0.00;51733.47;6275467;22;19911;-73
2023/08/16 11:19:46;;;;;;;;;;;;;;;-140.72;0.00;51692.91;6277811;22;20224;-70
2023/08/16 11:22:11;;;;;;;;;;;;;;;-140.72;0.00;51690.88;6277552;22;20282;-70
2023/08/16 11:24:37;;;;;;;;;;;;;;;-140.72;0.00;51692.91;6274871;22;19920;-69
2023/08/16 11:27:03;;;;;;;;;;;;;;;-140.72;0.00;51644.22;6277991;22;19965;-71
2023/08/16 11:29:28;;;;;;;;;;;;;;;-140.72;0.00;51603.63;6278418;22;19912;-71
2023/08/16 11:31:57;;;;;;;;;;;;;;;-140.72;0.00;51619.88;6278247;22;19911;-72
2023/08/16 11:34:22;;;;;;;;;;;;;;;-140.72;0.00;51615.81;6277983;22;19911;-74
2023/08/16 11:36:47;;;;;;;;;;;;;;;-140.72;0.00;51634.06;6277467;22;19957;-73
2023/08/16 11:39:12;;;;;;;;;;;;;;;-140.72;0.00;51605.66;6278371;22;19915;-76
2023/08/16 11:41:38;;;;;;;;;;;;;;;-140.72;0.00;51615.81;6279093;22;19911;-71
2023/08/16 11:44:03;;;;;;;;;;;;;;;-140.72;0.00;51617.84;6301473;22;19911;-73
2023/08/16 11:46:38;;;;;;;;;;;;;;;-140.72;0.00;51595.53;6275893;22;19964;-75
2023/08/16 11:49:03;;;;;;;;;;;;;;;-140.72;0.00;51583.34;6276204;22;20243;-73
2023/08/16 11:51:29;;;;;;;;;;;;;;;-140.72;0.00;51607.69;6278223;22;19918;-73
2023/08/16 11:53:54;;;;;;;;;;;;;;;-140.72;0.00;51593.50;6278063;22;19994;-72
2023/08/16 11:56:27;;;;;;;;;;;;;;;-140.72;0.00;51581.31;6275225;22;20251;-72
2023/08/16 11:58:55;;;;;;;;;;;;;;;-140.72;0.00;51561.03;6275580;22;20212;-73
2023/08/16 12:01:22;;;;;;;;;;;;;;;-140.72;0.00;51498.16;6275407;22;19911;-74
2023/08/16 12:03:47;;;;;;;;;;;;;;;-140.72;0.00;51498.16;6276623;22;19919;-72
2023/08/16 12:06:16;;;;;;;;;;;;;;;-140.72;0.00;51477.88;6278033;22;19958;-71
2023/08/16 12:08:47;;;;;;;;;;;;;;;-140.72;0.00;51542.78;6275497;22;19915;-71
2023/08/16 12:11:12;;;;;;;;;;;;;;;-140.72;0.00;51552.94;6276147;22;19919;-71
2023/08/16 12:13:37;;;;;;;;;;;;;;;-140.72;0.00;51607.69;6275451;22;19911;-74
2023/08/16 12:16:03;;;;;;;;;;;;;;;-140.72;0.00;51542.78;6276287;22;19911;-73